Forest Dale, Vermont
Current Conditions -  °F | °C
As of 10:35 AM on Friday 28 Nov 2014 (Local Time) from K6B0 Reporting Station
Scattered Clouds Scattered Clouds  
Wind Chill: -3°   Ceiling: Unl
Heat Index: -3°   Visibility: 10mi
Dew Point: -8°   Wind: 3mph
Humidity: 69%   Direction: 330°NNW
Pressure: 30.11"   Gusts: NA
Location:  43.83°N, 73.05°W
Report Text: K6B0 281535Z AUTO 33003KT 10SM SCT020 M03/M08 A3011 RMK AO2 T10271076
Loading
Personal Weather Stations






























Interactive Weather Map New forecast layout! Learn more

10-Day Weather Forecast

Advertisements
Track Severe Weather on mobile